< Typhoon 201514 2015 Season Typhoon 201516 >
Typhoon 201515 (GONI)
General InformationTrack Information on Google MapsDetailed Wind InformationForecast History on Google MapsAccess Analytics MapList of All Images || NewsDisaster Info.WeblogTrackbackTyphoon FrontTwiphoonTyphoon Now!Typhoon ImaginationDisaster Info. XMLResourceGoogle EarthGE AnimationAtom FeedGeoJSON
Detalied Best Track (Time Zone = UTC)
Year Month Day Hour Lat. Long. Pressure (hPa) Wind (kt) Class Image Chart
2015 8 13 18 12.2 151.1 1006 0 2 Image Chart
2015 8 14 00 12.3 150.4 1004 0 2 Image Chart
2015 8 14 06 12.4 149.9 1002 0 2 Image Chart
2015 8 14 12 12.7 149.1 1002 0 2 Image Chart
2015 8 14 18 13.0 148.2 1000 35 3 Image Chart
2015 8 15 00 13.5 147.0 994 45 3 Image Chart
2015 8 15 06 13.8 146.4 992 45 3 Image Chart
2015 8 15 12 14.2 146.0 990 50 4 Image Chart
2015 8 15 18 14.4 145.4 985 55 4 Image Chart
2015 8 16 00 14.7 144.8 980 60 4 Image Chart
2015 8 16 06 15.0 144.2 980 60 4 Image Chart
2015 8 16 12 15.5 143.6 970 65 5 Image Chart
2015 8 16 18 16.0 142.7 960 75 5 Image Chart
2015 8 17 00 16.5 141.7 950 85 5 Image Chart
2015 8 17 06 17.0 140.5 935 95 5 Image Chart
2015 8 17 12 17.3 139.2 935 95 5 Image Chart
2015 8 17 18 17.7 137.8 935 95 5 Image Chart
2015 8 18 00 18.2 136.0 935 95 5 Image Chart
2015 8 18 06 18.6 134.6 935 95 5 Image Chart
2015 8 18 12 18.7 132.9 935 95 5 Image Chart
2015 8 18 18 18.8 131.2 945 85 5 Image Chart
2015 8 19 00 18.9 129.9 945 85 5 Image Chart
2015 8 19 06 19.0 128.4 945 85 5 Image Chart
2015 8 19 12 18.9 127.3 940 90 5 Image Chart
2015 8 19 18 18.9 126.1 940 90 5 Image Chart
2015 8 20 00 18.8 125.3 940 90 5 Image Chart
2015 8 20 06 18.9 124.7 945 85 5 Image Chart
2015 8 20 12 19.0 124.0 945 85 5 Image Chart
2015 8 20 18 19.1 123.2 945 85 5 Image Chart
2015 8 21 00 19.2 122.9 945 85 5 Image Chart
2015 8 21 06 19.3 122.4 945 85 5 Image Chart
2015 8 21 12 19.3 122.3 955 80 5 Image Chart
2015 8 21 18 19.6 122.5 955 80 5 Image Chart
2015 8 22 00 20.1 122.6 955 80 5 Image Chart
2015 8 22 06 20.7 122.7 955 80 5 Image Chart
2015 8 22 12 21.3 123.1 955 80 5 Image Chart
2015 8 22 15 21.9 123.2 955 80 5 Image Chart
2015 8 22 18 22.4 123.2 955 80 5 Image Chart
2015 8 22 21 22.8 123.3 955 80 5 Image Chart
2015 8 23 00 23.1 123.3 955 80 5 Image Chart
2015 8 23 03 23.5 123.4 955 80 5 Image Chart
2015 8 23 06 23.8 123.5 950 85 5 Image Chart
2015 8 23 09 24.2 123.8 940 90 5 Image Chart
2015 8 23 10 24.3 123.9 940 90 5 Image Chart
2015 8 23 12 24.5 124.0 935 95 5 Image Chart
2015 8 23 15 24.8 124.2 935 95 5 Image Chart
2015 8 23 18 25.2 124.6 930 100 5 Image Chart
2015 8 23 21 25.7 125.3 930 100 5 Image Chart
2015 8 24 00 26.2 125.9 930 100 5 Image Chart
2015 8 24 03 27.1 126.7 930 100 5 Image Chart
2015 8 24 06 27.9 127.4 930 100 5 Image Chart
2015 8 24 09 28.8 128.1 930 100 5 Image Chart
2015 8 24 12 29.6 128.8 940 90 5 Image Chart
2015 8 24 15 30.5 129.5 940 90 5 Image Chart
2015 8 24 18 31.7 129.9 940 90 5 Image Chart
2015 8 24 19 32.0 130.1 945 85 5 Image Chart
2015 8 24 20 32.4 130.5 950 85 5 Image Chart
2015 8 24 21 32.8 130.5 955 80 5 Image Chart
2015 8 25 00 33.8 130.4 965 70 5 Image Chart
2015 8 25 03 34.6 130.6 965 70 5 Image Chart
2015 8 25 06 35.3 131.0 965 70 5 Image Chart
2015 8 25 09 36.0 131.8 970 60 4 Image Chart
2015 8 25 12 36.5 132.3 980 0 6 Image Chart
2015 8 25 18 37.7 133.0 980 0 6 Image Chart
2015 8 26 00 39.3 133.5 984 0 6 Image Chart
2015 8 26 06 40.5 134.1 984 0 6 Image Chart
2015 8 26 12 41.3 133.9 988 0 6 Image Chart
2015 8 26 18 43.0 133.0 990 0 6 Image Chart
2015 8 27 00 44.4 131.8 998 0 6 Image Chart
2015 8 27 06 44.5 128.6 1000 0 6 Image Chart
2015 8 27 12 44.2 127.3 1002 0 6 Image Chart
2015 8 27 18 43.9 126.7 1002 0 6 Image Chart
2015 8 28 00 44.0 126.4 1004 0 6 Image Chart
2015 8 28 06 44.1 126.3 1002 0 6 Image Chart
2015 8 28 12 44.3 126.4 1004 0 6 Image Chart
2015 8 28 18 44.5 126.4 1006 0 6 Image Chart
2015 8 29 00 44.6 126.4 1006 0 6 Image Chart
2015 8 29 06 44.9 126.4 1006 0 6 Image Chart
2015 8 29 12 45.2 126.1 1008 0 6 Image Chart
2015 8 29 18 45.5 125.8 1008 0 6 Image Chart
2015 8 30 00 45.5 125.8 1010 0 6 Image Chart
2015 8 30 06 45.5 125.8 1010 0 6 Image Chart
Japan Meteorological Agency Best Track Data | Correction Date : 2015-10-08
< Typhoon 201514 2015 Season Typhoon 201516 >

Help